Hiroshimanishi, Japan

2:41 PM JST on February 28, 2015 (GMT +0900)
Hiroshima | Change Station
CLOSE
Current Station
Airport
Location: Hiroshima Airport,
Elevation: 1096 ft
Nearby Weather Stations

Elev 1096 ft 34.44 °N, 132.92 °E | Updated 41 minutes ago

Mostly Cloudy
Mostly Cloudy
45 °F
Feels Like 41 °F
N
7
Wind Variable Wind from South

Today
High -- | Low -- °F
--% Chance of Precip.
Yesterday
High -- | Low -- °F
Precip. -- in
6:41 AM 6:04 PM
Waxing Gibbous, 74% visible
Pressure 30.21 in
Visibility 6.2 miles
Clouds Few 3500 ft
Mostly Cloudy 13000 ft
Windchill 41 °F
Dew Point 23 °F
Humidity 43%
Rainfall 0.00 in
Snow Depth Not available.
UV 3 out of 12
Pollen Not available.
Air Quality Not available.
Flu Activity Not available.
METAR RJOA 280500Z 18006KT 120V230 9999 FEW035 BKN130 07/M05 Q1023

More Conditions Fewer Conditions

Pressure 30.21 in
Visibility 6.2 miles
Clouds Few 3500 ft
Mostly Cloudy 13000 ft
Windchill 41 °F
Dew Point 23 °F
Humidity 43%
Rainfall 0.00 in
Snow Depth Not available.
UV 3 out of 12
Pollen Not available.
Air Quality Not available.
Flu Activity Not available.
METAR RJOA 280500Z 18006KT 120V230 9999 FEW035 BKN130 07/M05 Q1023

More Conditions Fewer Conditions

10-Day Weather Forecast

Almanac

Astronomy

Feb. 28, 2015 Rise Set
Actual Time
Civil Twilight
Nautical Twilight
Astronomical Twilight
Moon
Length of Visible Light
Length of Day
Tomorrow will be .
, % of the Moon is Illuminated

Today's Extremes

Country Highs Country Lows

Community

WunderPhotos

Upload Photos

1,800,972 photos uploaded!

WunderBlogs® & News

Nearby

Air Quality

  Air Quality AQ Index Pollutant
Not available.

Snow Depth

Station Depth Elevation

Earthquake Activity

City Distance Mag. Time & Date
Minimum magnitude displayed is 2.5.

Coastal Water Temperatures

Place Temperature

Nearby Weather Stations